Impacts TAF Board
For situational awareness. Not to be used for flight planning purposes.
IDs:

KBWI - Baltimore-Washington, MD, US

Issued at 1120 UTC 15 Oct 2018
Updated at 1433 UTC 15 Oct 2018
Potential Impact None Slight Moderate High
Time1354Z 15/15Z 15/16Z 15/17Z 15/18Z 15/19Z 15/20Z 15/21Z 15/22Z 15/23Z 16/00Z 16/01Z 16/02Z 16/03Z>>
Type OBS PRVL PRVL PRVL PRVL PRVL PRVL PRVL PRVL PRVL PRVL PRVL PRVL PRVL
VIS 6 >6 >6 >6 >6 >6 >6 >6 >6 >6 >6 >6 >6 >6
CIG 7 25 25 45 45 45 45 50 50 50 50 50 50 50
Cover OVC BKN BKN BKN BKN BKN BKN BKN BKN BKN BKN BKN BKN OVC
FltCat IFR MVFR MVFR VFR VFR VFR VFR VFR VFR VFR VFR VFR VFR VFR
WX -RA BR VCSH VCSH VCSH VCSH VCSH VCSH -SHRA -SHRA -SHRA -SHRA -SHRA -SHRA --
WDir 200 220 220 220 220 220 220 220 220 220 220 220 220 290
WSpd 7 8 8 10 10 10 10 6 6 6 6 6 6 10
WGst -- 16 16 19 19 19 19 -- -- -- -- -- -- --
Raw TAF
KBWI 151120Z 1512/1618 20007KT 5SM -SHRADZ BKN008 OVC015
  FM151500 22008G16KT P6SM VCSH BKN025
  FM151700 22010G19KT P6SM VCSH BKN045
  FM152100 22006KT P6SM -SHRA BKN050
  FM160300 29010KT P6SM OVC050
  FM160500 31013G26KT P6SM OVC060
  FM161000 32008KT P6SM BKN150


Raw METAR
KBWI 151354Z 20007KT 6SM -RA BR BKN007 OVC012 16/15 A3009 RMK AO2 SLP190 P0004 T01560150
KBWI 151323Z 23006KT 4SM -RA BR BKN007 BKN012 OVC023 15/15 A3010 RMK AO2 P0004 T01500150 $
KBWI 151303Z 22007KT 2 1/2SM RA BR BKN008 BKN023 OVC043 15/14 A3011 RMK AO2 P0002 T01500144 $
KBWI 151254Z 22006KT 4SM -RA BR BKN005 OVC012 15/14 A3011 RMK AO2 SLP195 P0001 T01500144 $
KBWI 151154Z 21007KT 4SM -RA BR BKN006 OVC011 14/14 A3011 RMK AO2 SLP194 P0004 60006 70010 T01440139 10144 20133 58005 $
KBWI 151135Z 20005KT 3SM -RA BR BKN006 OVC011 14/14 A3010 RMK AO2 P0003 T01440139 $

METAR Board
Radar Display
Forecast Discussion
For situational awareness. Not to be used for flight planning purposes.